createdAt,value
2023-04-22T00:03:15.960Z,12.60
2023-04-22T00:05:49.449Z,9.40
2023-04-22T00:08:22.914Z,13.80
2023-04-22T00:10:55.480Z,9.20
2023-04-22T00:13:28.276Z,12.20
2023-04-22T00:16:01.879Z,10.00
2023-04-22T00:18:36.334Z,12.00
2023-04-22T00:21:10.579Z,8.70
2023-04-22T00:23:45.672Z,8.50
2023-04-22T00:26:19.533Z,8.50
2023-04-22T00:29:01.100Z,7.90
2023-04-22T00:31:34.032Z,9.50
2023-04-22T00:34:07.129Z,9.80
2023-04-22T00:36:39.884Z,10.30
2023-04-22T00:39:12.570Z,8.70
2023-04-22T00:41:45.582Z,9.80
2023-04-22T00:44:19.017Z,8.30
2023-04-22T00:46:52.900Z,9.30
2023-04-22T00:49:26.923Z,9.60
2023-04-22T00:51:59.466Z,8.70
2023-04-22T00:54:33.557Z,10.90
2023-04-22T00:57:07.176Z,12.20
2023-04-22T00:59:40.765Z,9.60
2023-04-22T01:02:13.742Z,10.60
2023-04-22T01:04:47.009Z,9.80
2023-04-22T01:07:19.560Z,8.30
2023-04-22T01:09:53.476Z,10.00
2023-04-22T01:14:57.212Z,10.90
2023-04-22T01:17:29.754Z,9.10
2023-04-22T01:20:04.601Z,10.80
2023-04-22T01:22:42.529Z,8.80
2023-04-22T01:25:15.733Z,9.20
2023-04-22T01:27:48.460Z,11.40
2023-04-22T01:30:21.672Z,13.00
2023-04-22T01:32:56.625Z,9.40
2023-04-22T01:35:31.092Z,10.70
2023-04-22T01:38:03.751Z,12.80
2023-04-22T01:40:37.205Z,11.40
2023-04-22T01:45:41.057Z,8.70
2023-04-22T01:48:13.578Z,8.90
2023-04-22T01:50:46.252Z,11.10
2023-04-22T01:53:19.502Z,10.00
2023-04-22T01:55:52.133Z,11.10
2023-04-22T01:58:24.771Z,11.30
2023-04-22T02:00:57.798Z,13.80
2023-04-22T02:03:30.555Z,10.40
2023-04-22T02:06:03.493Z,8.20
2023-04-22T02:08:37.032Z,10.70
2023-04-22T02:11:10.441Z,12.80
2023-04-22T02:13:43.582Z,11.60
2023-04-22T02:16:16.944Z,12.40
2023-04-22T02:18:49.446Z,12.70
2023-04-22T02:21:22.371Z,10.80
2023-04-22T02:23:54.971Z,12.00
2023-04-22T02:26:27.669Z,16.20
2023-04-22T02:29:00.485Z,10.70
2023-04-22T02:31:33.196Z,12.80
2023-04-22T02:34:06.977Z,11.90
2023-04-22T02:36:39.931Z,10.90
2023-04-22T02:39:12.699Z,13.40
2023-04-22T02:41:45.981Z,12.90
2023-04-22T02:44:18.468Z,14.40
2023-04-22T02:46:51.391Z,13.30
2023-04-22T02:49:23.900Z,12.20
2023-04-22T02:51:56.820Z,11.60
2023-04-22T02:54:29.649Z,16.50
2023-04-22T02:57:03.206Z,13.60
2023-04-22T02:59:36.400Z,12.70
2023-04-22T03:02:11.038Z,13.40
2023-04-22T03:05:06.548Z,12.70
2023-04-22T03:10:16.042Z,12.70
2023-04-22T03:12:49.584Z,13.40
2023-04-22T03:15:22.277Z,12.40
2023-04-22T03:17:55.262Z,15.20
2023-04-22T03:20:28.448Z,13.50
2023-04-22T03:23:01.487Z,12.80
2023-04-22T03:25:34.039Z,11.50
2023-04-22T03:28:10.196Z,16.30
2023-04-22T03:30:43.275Z,15.60
2023-04-22T03:33:16.157Z,15.80
2023-04-22T03:35:56.179Z,15.70
2023-04-22T03:38:30.063Z,17.80
2023-04-22T03:41:02.950Z,16.00
2023-04-22T03:43:44.993Z,15.80
2023-04-22T03:46:17.951Z,16.90
2023-04-22T03:48:58.043Z,16.50
2023-04-22T03:51:34.860Z,14.50
2023-04-22T03:54:10.685Z,13.40
2023-04-22T03:56:46.862Z,15.60
2023-04-22T03:59:20.039Z,27.30
2023-04-22T04:01:55.369Z,23.30
2023-04-22T04:04:31.590Z,16.50
2023-04-22T04:07:06.071Z,15.20
2023-04-22T04:09:39.012Z,17.30
2023-04-22T04:12:12.343Z,19.80
2023-04-22T04:14:48.279Z,14.00
2023-04-22T04:17:26.191Z,15.60
2023-04-22T04:19:59.462Z,15.40
2023-04-22T04:22:32.125Z,17.50
2023-04-22T04:25:05.831Z,15.90
2023-04-22T04:27:42.706Z,14.90
2023-04-22T04:30:18.240Z,14.40
2023-04-22T04:32:58.170Z,17.70
2023-04-22T04:35:34.822Z,16.80
2023-04-22T04:38:07.806Z,15.40
2023-04-22T04:40:45.926Z,16.90
2023-04-22T04:43:29.861Z,16.20
2023-04-22T04:46:10.058Z,16.40
2023-04-22T04:48:44.258Z,15.70
2023-04-22T04:51:20.070Z,15.80
2023-04-22T04:53:59.973Z,20.20
2023-04-22T04:56:36.657Z,15.20
2023-04-22T04:59:09.866Z,11.90
2023-04-22T05:01:43.877Z,16.90
2023-04-22T05:04:17.813Z,13.70
2023-04-22T05:06:50.977Z,11.90
2023-04-22T05:09:23.730Z,14.30
2023-04-22T05:12:06.873Z,20.20
2023-04-22T05:14:41.162Z,12.90
2023-04-22T05:17:14.892Z,13.10
2023-04-22T05:19:47.670Z,11.70
2023-04-22T05:22:21.252Z,14.10
2023-04-22T05:24:54.064Z,14.10
2023-04-22T05:27:27.326Z,10.30
2023-04-22T05:30:00.653Z,14.40
2023-04-22T05:32:35.697Z,11.00
2023-04-22T05:35:09.218Z,13.60
2023-04-22T05:37:42.804Z,14.60
2023-04-22T05:40:16.330Z,11.00
2023-04-22T05:42:49.224Z,11.60
2023-04-22T05:45:22.162Z,13.20
2023-04-22T05:47:56.203Z,13.00
2023-04-22T05:50:30.365Z,11.30
2023-04-22T05:53:09.653Z,12.10
2023-04-22T05:55:42.734Z,10.00
2023-04-22T05:58:17.184Z,11.40
2023-04-22T06:00:56.773Z,13.60
2023-04-22T06:03:48.757Z,10.70
2023-04-22T06:06:22.270Z,11.40
2023-04-22T06:08:55.382Z,11.50
2023-04-22T06:11:30.907Z,13.60
2023-04-22T06:14:03.978Z,13.20
2023-04-22T06:16:41.132Z,13.20
2023-04-22T06:19:14.027Z,10.90
2023-04-22T06:21:47.110Z,9.80
2023-04-22T06:24:19.832Z,9.30
2023-04-22T06:26:52.586Z,12.40
2023-04-22T06:29:25.563Z,8.80
2023-04-22T06:32:01.710Z,9.60
2023-04-22T06:34:34.617Z,11.20
2023-04-22T06:37:07.516Z,10.20
2023-04-22T06:39:40.854Z,11.50
2023-04-22T06:42:48.470Z,9.00
2023-04-22T06:45:47.349Z,7.10
2023-04-22T06:48:27.802Z,8.50
2023-04-22T06:51:29.341Z,7.30
2023-04-22T06:54:02.558Z,7.80
2023-04-22T06:59:08.088Z,11.80
2023-04-22T07:01:41.656Z,8.40
2023-04-22T07:04:14.464Z,8.30
2023-04-22T07:06:48.297Z,5.90
2023-04-22T07:09:21.129Z,6.50
2023-04-22T07:11:53.875Z,5.80
2023-04-22T07:14:28.772Z,7.70
2023-04-22T07:17:02.325Z,8.70
2023-04-22T07:22:08.545Z,6.10
2023-04-22T07:24:41.625Z,7.70
2023-04-22T07:27:14.226Z,7.40
2023-04-22T07:29:47.185Z,8.90
2023-04-22T07:32:19.752Z,8.90
2023-04-22T07:34:52.728Z,7.00
2023-04-22T07:37:26.136Z,11.00
2023-04-22T07:39:58.962Z,7.70
2023-04-22T07:42:32.009Z,8.50
2023-04-22T07:45:04.519Z,9.20
2023-04-22T07:47:37.424Z,7.30
2023-04-22T07:50:12.133Z,5.70
2023-04-22T07:52:46.519Z,6.10
2023-04-22T07:55:19.487Z,7.90
2023-04-22T08:00:23.464Z,9.50
2023-04-22T08:02:56.486Z,6.30
2023-04-22T08:05:29.119Z,6.80
2023-04-22T08:08:01.886Z,11.60
2023-04-22T08:10:34.608Z,5.70
2023-04-22T08:13:07.300Z,7.00
2023-04-22T08:15:40.455Z,7.40
2023-04-22T08:20:47.020Z,7.20
2023-04-22T08:23:21.930Z,7.20
2023-04-22T08:25:55.254Z,7.40
2023-04-22T08:28:27.878Z,6.40
2023-04-22T08:31:00.566Z,8.80
2023-04-22T08:33:33.736Z,4.90
2023-04-22T08:36:06.694Z,5.70
2023-04-22T08:38:39.380Z,4.90
2023-04-22T08:41:12.395Z,3.80
2023-04-22T08:46:21.796Z,4.90
2023-04-22T08:48:55.023Z,5.00
2023-04-22T08:51:28.693Z,5.70
2023-04-22T08:54:01.716Z,6.80
2023-04-22T08:56:37.351Z,4.40
2023-04-22T08:59:11.873Z,5.20
2023-04-22T09:01:45.836Z,4.40
2023-04-22T09:04:20.962Z,3.70
2023-04-22T09:06:53.820Z,3.40
2023-04-22T09:09:29.811Z,6.30
2023-04-22T09:12:03.241Z,5.10
2023-04-22T09:14:36.791Z,7.60
2023-04-22T09:17:11.192Z,3.80
2023-04-22T09:19:44.439Z,4.10
2023-04-22T09:22:20.142Z,4.90
2023-04-22T09:25:06.403Z,5.10
2023-04-22T09:27:41.088Z,3.50
2023-04-22T09:30:16.183Z,5.40
2023-04-22T09:33:00.241Z,5.00
2023-04-22T09:35:38.345Z,9.90
2023-04-22T09:38:12.440Z,4.40
2023-04-22T09:40:48.178Z,5.50
2023-04-22T09:43:22.241Z,5.00
2023-04-22T09:45:58.227Z,4.70
2023-04-22T09:48:32.193Z,7.70
2023-04-22T09:51:18.578Z,5.30
2023-04-22T09:54:01.458Z,5.10
2023-04-22T09:56:50.931Z,6.00
2023-04-22T09:59:28.490Z,4.80
2023-04-22T10:02:04.661Z,4.90
2023-04-22T10:04:37.550Z,5.10
2023-04-22T10:07:10.189Z,4.00
2023-04-22T10:09:43.629Z,6.50
2023-04-22T10:12:25.946Z,5.90
2023-04-22T10:15:02.185Z,8.60
2023-04-22T10:17:37.849Z,6.80
2023-04-22T10:20:19.041Z,6.60
2023-04-22T10:22:54.129Z,8.20
2023-04-22T10:25:28.119Z,6.00
2023-04-22T10:28:06.220Z,6.10
2023-04-22T10:30:41.046Z,6.10
2023-04-22T10:33:40.616Z,4.90
2023-04-22T10:36:18.565Z,5.30
2023-04-22T10:39:22.450Z,4.90
2023-04-22T10:44:48.286Z,5.00
2023-04-22T10:47:38.567Z,6.60
2023-04-22T10:50:16.093Z,4.50
2023-04-22T10:52:50.836Z,4.70
2023-04-22T10:55:24.118Z,6.30
2023-04-22T10:57:57.798Z,5.40
2023-04-22T11:00:52.421Z,6.50
2023-04-22T11:03:31.729Z,5.30
2023-04-22T11:06:22.907Z,6.60
2023-04-22T11:09:13.314Z,7.00
2023-04-22T11:11:48.425Z,4.60
2023-04-22T11:14:23.339Z,6.70
2023-04-22T11:16:56.880Z,4.90
2023-04-22T11:19:32.090Z,5.30
2023-04-22T11:22:04.878Z,5.40
2023-04-22T11:24:37.722Z,7.30
2023-04-22T11:29:30.361Z,7.30
2023-04-22T11:32:45.436Z,5.80
2023-04-22T11:35:20.279Z,5.30
2023-04-22T11:37:56.251Z,6.40
2023-04-22T11:40:33.186Z,7.80
2023-04-22T11:43:09.683Z,4.80
2023-04-22T11:45:43.081Z,4.70
2023-04-22T11:48:16.962Z,3.80
2023-04-22T11:50:49.551Z,4.60
2023-04-22T11:53:24.482Z,4.80
2023-04-22T11:55:57.279Z,5.70
2023-04-22T11:58:30.719Z,4.70
2023-04-22T12:01:03.712Z,4.50
2023-04-22T12:06:09.411Z,5.00
2023-04-22T12:08:44.816Z,3.60
2023-04-22T12:11:17.857Z,4.70
2023-04-22T12:13:51.657Z,5.10
2023-04-22T12:16:24.918Z,4.10
2023-04-22T12:21:32.580Z,4.50
2023-04-22T12:24:12.089Z,6.30
2023-04-22T12:26:45.920Z,4.60
2023-04-22T12:29:18.843Z,4.20
2023-04-22T12:31:51.970Z,4.30
2023-04-22T12:36:56.738Z,4.50
2023-04-22T12:39:29.576Z,4.60
2023-04-22T12:42:02.618Z,6.10
2023-04-22T12:44:35.350Z,4.90
2023-04-22T12:47:08.051Z,4.70
2023-04-22T12:49:41.237Z,3.40
2023-04-22T12:52:14.211Z,6.30
2023-04-22T12:54:47.125Z,3.50
2023-04-22T12:57:19.953Z,3.90
2023-04-22T12:59:52.523Z,3.80
2023-04-22T13:02:25.813Z,5.40
2023-04-22T13:04:58.769Z,12.90
2023-04-22T13:07:31.388Z,5.50
2023-04-22T13:10:04.092Z,6.00
2023-04-22T13:12:38.527Z,4.50
2023-04-22T13:15:13.157Z,4.50
2023-04-22T13:17:47.590Z,3.50
2023-04-22T13:20:21.392Z,8.20
2023-04-22T13:22:53.937Z,4.40
2023-04-22T13:25:26.833Z,3.60
2023-04-22T13:27:59.465Z,4.30
2023-04-22T13:30:32.816Z,5.10
2023-04-22T13:33:05.357Z,5.20
2023-04-22T13:35:39.971Z,3.60
2023-04-22T13:38:12.715Z,6.00
2023-04-22T13:40:45.588Z,4.80
2023-04-22T13:43:18.682Z,5.60
2023-04-22T13:48:22.317Z,3.40
2023-04-22T13:50:55.221Z,3.90
2023-04-22T13:53:28.248Z,4.80
2023-04-22T13:58:32.710Z,6.00
2023-04-22T14:01:08.472Z,4.20
2023-04-22T14:03:41.295Z,5.30
2023-04-22T14:06:14.401Z,7.00
2023-04-22T14:11:18.330Z,4.60
2023-04-22T14:16:22.529Z,4.00
2023-04-22T14:18:56.212Z,4.60
2023-04-22T14:21:30.182Z,3.10
2023-04-22T14:24:03.872Z,4.70
2023-04-22T14:26:36.584Z,4.20
2023-04-22T14:29:08.971Z,4.90
2023-04-22T14:31:42.518Z,3.40
2023-04-22T14:34:16.723Z,3.90
2023-04-22T14:36:50.052Z,3.90
2023-04-22T14:39:22.981Z,4.30
2023-04-22T14:41:57.729Z,3.80
2023-04-22T14:44:30.219Z,5.10
2023-04-22T14:49:35.339Z,5.50
2023-04-22T14:52:09.331Z,3.50
2023-04-22T14:54:41.868Z,3.10
2023-04-22T14:57:14.900Z,3.20
2023-04-22T14:59:47.355Z,4.80
2023-04-22T15:02:20.666Z,2.80
2023-04-22T15:04:53.639Z,4.20
2023-04-22T15:07:31.022Z,3.10
2023-04-22T15:10:04.764Z,4.50
2023-04-22T15:15:10.752Z,3.70
2023-04-22T15:17:44.142Z,3.40
2023-04-22T15:20:17.487Z,3.70
2023-04-22T15:22:52.602Z,4.50
2023-04-22T15:25:27.707Z,3.90
2023-04-22T15:28:02.118Z,4.80
2023-04-22T15:30:34.948Z,3.60
2023-04-22T15:51:34.213Z,5.60
2023-04-22T15:54:09.009Z,3.70
2023-04-22T15:56:41.928Z,4.80
2023-04-22T15:59:16.215Z,3.60
2023-04-22T16:01:49.783Z,4.70
2023-04-22T16:04:25.621Z,3.90
2023-04-22T16:07:01.202Z,5.60
2023-04-22T16:09:33.800Z,4.20
2023-04-22T16:12:08.309Z,5.30
2023-04-22T16:17:16.019Z,3.00
2023-04-22T16:19:48.850Z,33.70
2023-04-22T16:22:21.547Z,6.30
2023-04-22T16:24:54.222Z,10.90
2023-04-22T16:27:27.885Z,6.60
2023-04-22T16:30:00.781Z,8.70
2023-04-22T16:32:33.861Z,4.80
2023-04-22T16:35:07.518Z,3.60
2023-04-22T16:37:42.180Z,12.90
2023-04-22T16:40:15.387Z,6.00
2023-04-22T16:42:50.488Z,5.00
2023-04-22T16:45:24.640Z,6.70
2023-04-22T16:47:57.558Z,17.90
2023-04-22T16:53:01.201Z,11.00
2023-04-22T16:55:35.086Z,6.00
2023-04-22T16:58:09.951Z,5.20
2023-04-22T17:00:43.138Z,4.30
2023-04-22T17:03:17.766Z,5.60
2023-04-22T17:05:50.737Z,5.20
2023-04-22T17:08:23.577Z,6.10
2023-04-22T17:10:56.624Z,5.90
2023-04-22T17:13:32.419Z,8.30
2023-04-22T17:16:05.973Z,13.10
2023-04-22T17:27:44.373Z,9.40
2023-04-22T17:30:18.380Z,8.90
2023-04-22T17:32:52.612Z,5.80
2023-04-22T17:35:25.614Z,9.90
2023-04-22T17:37:58.505Z,6.40
2023-04-22T17:40:31.461Z,6.00
2023-04-22T17:43:05.532Z,8.00
2023-04-22T17:45:38.353Z,6.40
2023-04-22T17:48:12.477Z,6.50
2023-04-22T17:50:45.004Z,4.90
2023-04-22T17:53:19.554Z,5.40
2023-04-22T17:55:53.824Z,5.50
2023-04-22T17:58:27.456Z,6.50
2023-04-22T18:01:00.243Z,4.20
2023-04-22T18:03:33.206Z,4.20
2023-04-22T18:06:06.052Z,5.60
2023-04-22T18:08:39.334Z,4.50
2023-04-22T18:13:42.732Z,4.60
2023-04-22T18:16:15.653Z,5.80
2023-04-22T18:18:48.684Z,7.00
2023-04-22T18:21:21.820Z,8.90
2023-04-22T18:23:54.482Z,4.80
2023-04-22T18:26:27.264Z,6.70
2023-04-22T18:29:00.501Z,6.50
2023-04-22T18:31:34.522Z,4.60
2023-04-22T18:34:14.219Z,5.30
2023-04-22T18:36:48.012Z,5.70
2023-04-22T18:39:21.828Z,7.10
2023-04-22T18:41:55.141Z,5.70
2023-04-22T18:44:28.514Z,6.30
2023-04-22T18:49:35.211Z,7.80
2023-04-22T18:52:07.849Z,6.30
2023-04-22T18:55:05.876Z,5.70
2023-04-22T18:57:38.552Z,9.50
2023-04-22T19:00:14.939Z,6.40
2023-04-22T19:02:48.137Z,6.10
2023-04-22T19:07:51.799Z,5.70
2023-04-22T19:10:27.386Z,23.00
2023-04-22T19:13:01.817Z,7.70
2023-04-22T19:15:34.912Z,8.80
2023-04-22T19:18:08.024Z,8.30
2023-04-22T19:20:40.582Z,6.30
2023-04-22T19:23:13.587Z,9.00
2023-04-22T19:25:46.248Z,12.30
2023-04-22T19:28:19.164Z,8.90
2023-04-22T19:30:54.334Z,7.70
2023-04-22T19:33:27.577Z,8.10
2023-04-22T19:36:02.071Z,7.30
2023-04-22T19:38:36.102Z,7.90
2023-04-22T19:41:30.430Z,8.70
2023-04-22T19:44:18.976Z,10.00
2023-04-22T19:46:52.603Z,10.90
2023-04-22T19:49:28.205Z,13.50
2023-04-22T19:52:03.493Z,11.50
2023-04-22T19:54:39.368Z,17.80
2023-04-22T19:57:14.795Z,15.70
2023-04-22T19:59:48.823Z,15.10
2023-04-22T20:02:23.401Z,14.60
2023-04-22T20:04:58.548Z,17.10
2023-04-22T20:07:34.349Z,16.70
2023-04-22T20:10:09.673Z,15.70
2023-04-22T20:12:47.214Z,11.90
2023-04-22T20:15:20.998Z,13.20
2023-04-22T20:17:55.626Z,15.10
2023-04-22T20:20:31.409Z,11.60
2023-04-22T20:23:10.769Z,13.40
2023-04-22T20:25:46.215Z,11.80
2023-04-22T20:28:19.377Z,12.50
2023-04-22T20:30:52.799Z,10.20
2023-04-22T20:33:25.608Z,9.00
2023-04-22T20:35:59.281Z,9.20
2023-04-22T20:38:37.299Z,7.70
2023-04-22T20:41:19.880Z,12.90
2023-04-22T20:43:56.182Z,10.50
2023-04-22T20:46:28.766Z,9.20
2023-04-22T20:49:02.190Z,8.90
2023-04-22T20:51:35.668Z,11.60
2023-04-22T20:54:17.805Z,11.20
2023-04-22T20:56:54.153Z,9.10
2023-04-22T20:59:27.185Z,12.20
2023-04-22T21:02:00.985Z,11.90
2023-04-22T21:04:36.578Z,11.40
2023-04-22T21:07:12.748Z,11.10
2023-04-22T21:09:46.066Z,11.90
2023-04-22T21:14:53.215Z,12.80
2023-04-22T21:17:31.865Z,14.30
2023-04-22T21:20:09.583Z,11.10
2023-04-22T21:22:45.743Z,13.50
2023-04-22T21:25:22.868Z,12.40
2023-04-22T21:27:56.614Z,14.30
2023-04-22T21:30:30.372Z,11.40
2023-04-22T21:33:03.011Z,12.00
2023-04-22T21:35:36.076Z,12.50
2023-04-22T21:38:09.338Z,12.70
2023-04-22T21:40:41.848Z,9.80
2023-04-22T21:43:14.652Z,12.20
2023-04-22T21:45:47.400Z,15.20
2023-04-22T21:48:20.234Z,11.10
2023-04-22T21:50:53.299Z,12.30
2023-04-22T21:53:25.977Z,10.80
2023-04-22T21:55:58.857Z,11.30
2023-04-22T21:58:31.519Z,10.50
2023-04-22T22:01:04.023Z,11.70
2023-04-22T22:03:37.292Z,15.00
2023-04-22T22:06:10.464Z,11.60
2023-04-22T22:08:45.428Z,11.70
2023-04-22T22:11:29.822Z,10.20
2023-04-22T22:14:03.948Z,10.00
2023-04-22T22:16:36.363Z,11.30
2023-04-22T22:19:11.486Z,10.00
2023-04-22T22:21:43.918Z,9.00
2023-04-22T22:24:18.252Z,11.60
2023-04-22T22:26:51.112Z,11.80
2023-04-22T22:29:23.816Z,11.00
2023-04-22T22:31:56.232Z,9.80
2023-04-22T22:34:29.677Z,14.80
2023-04-22T22:39:36.186Z,11.10
2023-04-22T22:42:08.900Z,10.90
2023-04-22T22:44:41.968Z,10.20
2023-04-22T22:49:46.218Z,9.10
2023-04-22T22:52:18.777Z,11.40
2023-04-22T22:54:51.854Z,10.50
2023-04-22T22:57:25.099Z,10.50
2023-04-22T22:59:57.768Z,10.90
2023-04-22T23:02:30.617Z,11.00
2023-04-22T23:05:05.579Z,15.20
2023-04-22T23:07:38.181Z,13.60
2023-04-22T23:10:13.791Z,11.80
2023-04-22T23:12:46.915Z,12.20
2023-04-22T23:15:19.682Z,10.70
2023-04-22T23:17:54.733Z,12.50
2023-04-22T23:20:28.822Z,9.50
2023-04-22T23:23:02.912Z,12.40
2023-04-22T23:25:37.014Z,13.40
2023-04-22T23:28:10.743Z,10.30
2023-04-22T23:30:44.364Z,10.20
2023-04-22T23:33:18.007Z,13.60
2023-04-22T23:38:22.913Z,10.70
2023-04-22T23:40:55.526Z,11.90
2023-04-22T23:43:27.943Z,11.70
2023-04-22T23:46:03.267Z,11.60
2023-04-22T23:48:36.499Z,10.60
2023-04-22T23:51:09.542Z,11.70
2023-04-22T23:53:42.274Z,10.70
2023-04-22T23:56:20.632Z,13.00
2023-04-22T23:58:54.480Z,10.40
